createdAt,value
2018-03-26T00:01:09.169Z,56.80
2018-03-26T00:06:14.115Z,51.73
2018-03-26T00:11:19.222Z,54.07
2018-03-26T00:16:23.426Z,61.63
2018-03-26T00:21:27.800Z,62.93
2018-03-26T00:26:32.174Z,60.63
2018-03-26T00:31:36.844Z,64.93
2018-03-26T00:36:41.260Z,60.17
2018-03-26T00:41:46.021Z,63.97
2018-03-26T00:46:49.643Z,60.43
2018-03-26T00:51:54.500Z,66.77
2018-03-26T00:56:59.233Z,65.27
2018-03-26T01:02:03.625Z,72.50
2018-03-26T01:07:07.392Z,66.10
2018-03-26T01:12:12.424Z,68.33
2018-03-26T01:17:17.915Z,68.73
2018-03-26T01:22:22.326Z,66.83
2018-03-26T01:27:27.109Z,66.13
2018-03-26T01:32:32.200Z,68.30
2018-03-26T01:37:37.114Z,63.33
2018-03-26T01:42:41.305Z,64.40
2018-03-26T01:47:45.645Z,63.17
2018-03-26T01:52:50.126Z,65.90
2018-03-26T01:57:55.854Z,67.50
2018-03-26T02:03:01.000Z,65.50
2018-03-26T02:08:05.721Z,64.00
2018-03-26T02:13:10.171Z,66.53
2018-03-26T02:18:15.401Z,66.27
2018-03-26T02:23:19.717Z,71.93
2018-03-26T02:28:24.049Z,65.77
2018-03-26T02:33:28.434Z,76.53
2018-03-26T02:38:32.184Z,71.23
2018-03-26T02:43:36.357Z,66.53
2018-03-26T02:48:40.954Z,64.53
2018-03-26T02:53:46.574Z,64.70
2018-03-26T02:58:51.398Z,65.27
2018-03-26T03:03:55.114Z,66.77
2018-03-26T03:08:59.878Z,76.83
2018-03-26T03:14:03.086Z,75.53
2018-03-26T03:19:07.393Z,68.77
2018-03-26T03:24:11.465Z,78.50
2018-03-26T03:29:14.538Z,73.90
2018-03-26T03:34:18.928Z,73.67
2018-03-26T03:39:23.817Z,78.00
2018-03-26T03:44:28.391Z,76.07
2018-03-26T03:49:32.452Z,70.73
2018-03-26T03:54:36.569Z,72.30
2018-03-26T03:59:40.222Z,70.50
2018-03-26T04:04:43.621Z,68.87
2018-03-26T04:09:47.706Z,74.30
2018-03-26T04:14:53.046Z,78.53
2018-03-26T04:19:57.784Z,71.53
2018-03-26T04:25:02.677Z,76.27
2018-03-26T04:30:07.768Z,72.87
2018-03-26T04:35:11.896Z,73.73
2018-03-26T04:40:16.100Z,87.83
2018-03-26T04:45:20.040Z,83.07
2018-03-26T04:50:23.851Z,70.03
2018-03-26T04:55:28.476Z,75.27
2018-03-26T05:00:32.787Z,73.13
2018-03-26T05:05:38.711Z,79.53
2018-03-26T05:10:43.669Z,72.83
2018-03-26T05:15:48.498Z,83.67
2018-03-26T05:20:53.561Z,74.97
2018-03-26T05:25:58.359Z,81.17
2018-03-26T05:31:02.453Z,78.13
2018-03-26T05:36:04.052Z,76.60
2018-03-26T05:41:05.580Z,93.37
2018-03-26T05:46:07.133Z,79.37
2018-03-26T05:51:09.396Z,90.20
2018-03-26T05:56:11.052Z,80.50
2018-03-26T06:01:12.649Z,78.17
2018-03-26T06:06:14.196Z,74.83
2018-03-26T06:11:15.766Z,73.83
2018-03-26T06:16:17.333Z,77.60
2018-03-26T06:21:18.836Z,75.90
2018-03-26T06:26:21.139Z,83.13
2018-03-26T06:31:22.700Z,82.83
2018-03-26T06:36:27.233Z,74.97
2018-03-26T06:41:29.552Z,70.30
2018-03-26T06:46:31.050Z,84.83
2018-03-26T06:51:32.589Z,80.20
2018-03-26T06:56:34.340Z,69.37
2018-03-26T07:01:35.930Z,77.87
2018-03-26T07:06:37.542Z,75.33
2018-03-26T07:11:39.833Z,76.87
2018-03-26T07:16:41.402Z,77.10
2018-03-26T07:21:42.945Z,66.63
2018-03-26T07:26:44.524Z,61.63
2018-03-26T07:31:46.071Z,64.40
2018-03-26T07:36:47.659Z,80.07
2018-03-26T07:41:49.169Z,73.67
2018-03-26T07:46:50.688Z,71.27
2018-03-26T07:51:52.438Z,66.63
2018-03-26T07:56:54.011Z,62.63
2018-03-26T08:01:55.727Z,68.73
2018-03-26T08:06:58.029Z,75.67
2018-03-26T08:11:59.533Z,70.87
2018-03-26T08:17:01.147Z,80.23
2018-03-26T08:22:02.835Z,73.67
2018-03-26T08:27:05.146Z,71.50
2018-03-26T08:32:06.790Z,73.40
2018-03-26T08:37:09.056Z,75.53
2018-03-26T08:42:10.627Z,69.67
2018-03-26T08:47:12.085Z,79.63
2018-03-26T08:52:13.627Z,73.17
2018-03-26T08:57:15.213Z,95.07
2018-03-26T09:02:20.841Z,71.27
2018-03-26T09:07:26.892Z,87.53
2018-03-26T09:12:33.487Z,68.80
2018-03-26T09:17:43.369Z,68.67
2018-03-26T09:22:50.873Z,79.70
2018-03-26T09:28:03.344Z,74.60
2018-03-26T09:33:11.601Z,76.83
2018-03-26T09:38:18.343Z,104.03
2018-03-26T09:43:24.648Z,73.70
2018-03-26T09:48:31.466Z,70.80
2018-03-26T09:53:37.176Z,78.60
2018-03-26T09:58:43.373Z,81.97
2018-03-26T10:03:48.306Z,73.27
2018-03-26T10:08:55.917Z,67.17
2018-03-26T10:14:01.385Z,75.37
2018-03-26T10:19:08.477Z,80.57
2018-03-26T10:24:15.114Z,91.33
2018-03-26T10:29:19.836Z,83.37
2018-03-26T10:34:30.890Z,97.07
2018-03-26T10:39:35.660Z,91.80
2018-03-26T10:44:43.772Z,98.30
2018-03-26T10:49:47.158Z,101.40
2018-03-26T10:54:51.694Z,102.67
2018-03-26T10:59:57.597Z,107.93
2018-03-26T11:05:04.395Z,107.23
2018-03-26T11:10:08.400Z,117.53
2018-03-26T11:15:13.032Z,108.83
2018-03-26T11:20:16.160Z,112.50
2018-03-26T11:25:21.044Z,96.20
2018-03-26T11:30:26.819Z,95.33
2018-03-26T11:35:28.484Z,108.70
2018-03-26T11:40:33.095Z,97.43
2018-03-26T11:45:37.830Z,106.50
2018-03-26T11:50:41.441Z,84.33
2018-03-26T11:55:46.727Z,95.20
2018-03-26T12:00:56.738Z,88.33
2018-03-26T12:06:03.134Z,122.17
2018-03-26T12:11:09.862Z,87.40
2018-03-26T12:16:11.564Z,85.73
2018-03-26T12:21:16.252Z,64.70
2018-03-26T12:26:22.907Z,72.33
2018-03-26T12:31:27.614Z,74.40
2018-03-26T12:36:29.389Z,68.30
2018-03-26T12:41:30.918Z,74.47
2018-03-26T12:46:46.530Z,73.40
2018-03-26T12:52:07.198Z,72.90
2018-03-26T12:57:27.106Z,80.23
2018-03-26T13:02:29.897Z,92.33
2018-03-26T13:07:31.440Z,79.50
2018-03-26T13:12:33.025Z,82.70
2018-03-26T13:17:34.549Z,78.37
2018-03-26T13:22:36.890Z,80.93
2018-03-26T13:27:38.473Z,79.67
2018-03-26T13:32:40.009Z,73.03
2018-03-26T13:37:42.385Z,82.43
2018-03-26T13:42:43.932Z,76.20
2018-03-26T13:47:45.503Z,78.50
2018-03-26T13:52:47.005Z,78.77
2018-03-26T13:57:49.052Z,87.10
2018-03-26T14:02:50.613Z,80.67
2018-03-26T14:07:52.890Z,82.23
2018-03-26T14:13:13.680Z,83.13
2018-03-26T14:18:15.253Z,82.10
2018-03-26T14:23:16.789Z,76.57
2018-03-26T14:28:18.388Z,89.70
2018-03-26T14:33:19.913Z,85.60
2018-03-26T14:38:21.569Z,84.67
2018-03-26T14:43:23.155Z,83.70
2018-03-26T14:48:24.708Z,89.80
2018-03-26T14:53:26.216Z,83.10
2018-03-26T14:58:27.753Z,88.57
2018-03-26T15:03:29.306Z,118.53
2018-03-26T15:08:30.871Z,89.07
2018-03-26T15:13:32.500Z,82.10
2018-03-26T15:18:34.058Z,71.60
2018-03-26T15:23:35.642Z,64.20
2018-03-26T15:28:37.239Z,66.27
2018-03-26T15:33:39.526Z,68.53
2018-03-26T15:38:41.863Z,65.33
2018-03-26T15:43:43.563Z,63.87
2018-03-26T15:48:45.166Z,62.03
2018-03-26T15:53:46.676Z,66.33
2018-03-26T15:58:48.222Z,75.83
2018-03-26T16:03:49.804Z,71.37
2018-03-26T16:08:51.476Z,73.60
2018-03-26T16:13:53.017Z,72.80
2018-03-26T16:18:54.568Z,81.90
2018-03-26T16:23:56.842Z,79.87
2018-03-26T16:28:59.140Z,85.07
2018-03-26T16:34:01.436Z,74.77
2018-03-26T16:39:03.028Z,70.43
2018-03-26T16:44:04.607Z,73.17
2018-03-26T16:49:06.145Z,72.67
2018-03-26T16:54:07.903Z,81.67
2018-03-26T16:59:10.288Z,88.33
2018-03-26T17:04:11.878Z,79.43
2018-03-26T17:09:13.513Z,87.20
2018-03-26T17:14:15.081Z,89.93
2018-03-26T17:19:16.633Z,82.77
2018-03-26T17:24:18.193Z,88.53
2018-03-26T17:29:19.767Z,76.80
2018-03-26T17:34:21.389Z,98.43
2018-03-26T17:39:22.962Z,91.03
2018-03-26T17:44:24.506Z,88.47
2018-03-26T17:49:26.831Z,99.33
2018-03-26T17:54:28.357Z,101.03
2018-03-26T17:59:30.737Z,101.63
2018-03-26T18:04:33.050Z,103.73
2018-03-26T18:09:34.618Z,99.17
2018-03-26T18:14:36.138Z,93.93
2018-03-26T18:19:37.693Z,95.77
2018-03-26T18:24:39.305Z,82.37
2018-03-26T18:29:41.611Z,58.47
2018-03-26T18:34:43.173Z,37.27
2018-03-26T18:39:45.469Z,38.73
2018-03-26T18:44:47.025Z,23.43
2018-03-26T18:49:48.623Z,17.20
2018-03-26T18:54:50.205Z,26.40
2018-03-26T18:59:51.749Z,13.07
2018-03-26T19:04:53.585Z,26.97
2018-03-26T19:09:55.133Z,14.63
2018-03-26T19:14:57.511Z,16.13
2018-03-26T19:19:59.068Z,13.23
2018-03-26T19:25:00.676Z,9.63
2018-03-26T19:30:02.263Z,10.00
2018-03-26T19:35:03.792Z,11.50
2018-03-26T19:40:05.348Z,10.20
2018-03-26T19:45:06.991Z,12.50
2018-03-26T19:50:08.555Z,13.27
2018-03-26T19:55:10.039Z,15.33
2018-03-26T20:00:11.566Z,12.17
2018-03-26T20:05:13.976Z,19.10
2018-03-26T20:10:15.547Z,15.40
2018-03-26T20:15:24.252Z,14.00
2018-03-26T20:20:32.719Z,13.90
2018-03-26T20:25:34.312Z,14.80
2018-03-26T20:30:36.009Z,12.43
2018-03-26T20:35:37.598Z,19.97
2018-03-26T20:40:40.056Z,17.70
2018-03-26T20:45:41.760Z,11.80
2018-03-26T20:50:44.103Z,20.20
2018-03-26T20:55:45.713Z,9.53
2018-03-26T21:00:48.071Z,13.67
2018-03-26T21:05:49.844Z,16.90
2018-03-26T21:10:51.433Z,18.20
2018-03-26T21:15:53.000Z,17.40
2018-03-26T21:20:54.505Z,18.37
2018-03-26T21:25:56.217Z,17.30
2018-03-26T21:30:57.779Z,12.10
2018-03-26T21:35:59.357Z,13.70
2018-03-26T21:41:00.958Z,11.87
2018-03-26T21:46:03.250Z,15.63
2018-03-26T21:51:05.637Z,16.37
2018-03-26T21:56:07.117Z,11.83
2018-03-26T22:01:08.660Z,12.67
2018-03-26T22:06:10.882Z,15.30
2018-03-26T22:11:12.402Z,11.57
2018-03-26T22:16:14.640Z,9.47
2018-03-26T22:21:16.131Z,25.10
2018-03-26T22:26:17.634Z,10.53
2018-03-26T22:31:19.937Z,12.60
2018-03-26T22:36:21.409Z,12.73
2018-03-26T22:41:22.946Z,15.47
2018-03-26T22:46:25.413Z,16.03
2018-03-26T22:51:26.930Z,12.43
2018-03-26T22:56:28.444Z,13.50
2018-03-26T23:01:30.074Z,14.40
2018-03-26T23:06:31.577Z,11.83
2018-03-26T23:11:33.081Z,18.97
2018-03-26T23:16:35.356Z,12.23
2018-03-26T23:21:37.639Z,15.97
2018-03-26T23:26:39.922Z,13.20
2018-03-26T23:31:41.461Z,13.30
2018-03-26T23:36:43.041Z,18.40
2018-03-26T23:41:44.733Z,17.77
2018-03-26T23:46:47.072Z,13.17
2018-03-26T23:51:48.607Z,13.30
2018-03-26T23:56:50.254Z,16.07
